createdAt,value
2019-03-24T00:00:30.451Z,1023.19
2019-03-24T00:01:40.734Z,1023.18
2019-03-24T00:02:31.428Z,1023.21
2019-03-24T00:03:30.416Z,1023.17
2019-03-24T00:04:30.420Z,1023.20
2019-03-24T00:05:30.396Z,1023.19
2019-03-24T00:06:30.431Z,1023.20
2019-03-24T00:07:30.379Z,1023.23
2019-03-24T00:08:30.364Z,1023.22
2019-03-24T00:09:30.347Z,1023.20
2019-03-24T00:10:30.337Z,1023.25
2019-03-24T00:11:30.357Z,1023.18
2019-03-24T00:12:30.317Z,1023.19
2019-03-24T00:13:30.310Z,1023.17
2019-03-24T00:14:30.301Z,1023.18
2019-03-24T00:15:30.282Z,1023.13
2019-03-24T00:16:30.306Z,1023.11
2019-03-24T00:17:30.284Z,1023.13
2019-03-24T00:18:30.247Z,1023.12
2019-03-24T00:19:30.247Z,1023.11
2019-03-24T00:20:30.237Z,1023.12
2019-03-24T00:21:30.222Z,1023.12
2019-03-24T00:22:30.424Z,1023.10
2019-03-24T00:23:30.190Z,1023.12
2019-03-24T00:24:30.186Z,1023.15
2019-03-24T00:25:30.173Z,1023.11
2019-03-24T00:26:30.157Z,1023.15
2019-03-24T00:27:30.185Z,1023.14
2019-03-24T00:28:30.138Z,1023.15
2019-03-24T00:29:30.145Z,1023.14
2019-03-24T00:30:30.122Z,1023.14
2019-03-24T00:31:30.105Z,1023.15
2019-03-24T00:32:30.134Z,1023.16
2019-03-24T00:33:30.079Z,1023.16
2019-03-24T00:34:30.070Z,1023.14
2019-03-24T00:35:30.061Z,1023.11
2019-03-24T00:36:30.051Z,1023.16
2019-03-24T00:37:30.059Z,1023.17
2019-03-24T00:38:30.031Z,1023.16
2019-03-24T00:39:30.013Z,1023.18
2019-03-24T00:40:30.001Z,1023.22
2019-03-24T00:41:29.999Z,1023.17
2019-03-24T00:42:30.011Z,1023.23
2019-03-24T00:43:29.987Z,1023.20
2019-03-24T00:44:29.959Z,1023.19
2019-03-24T00:45:36.777Z,1023.22
2019-03-24T00:46:30.932Z,1023.21
2019-03-24T00:47:29.933Z,1023.21
2019-03-24T00:48:29.940Z,1023.20
2019-03-24T00:49:29.912Z,1023.23
2019-03-24T00:50:29.896Z,1023.24
2019-03-24T00:51:29.881Z,1023.20
2019-03-24T00:52:29.889Z,1023.24
2019-03-24T00:53:29.882Z,1023.18
2019-03-24T00:54:29.870Z,1023.20
2019-03-24T00:55:29.834Z,1023.15
2019-03-24T00:56:29.870Z,1023.13
2019-03-24T00:57:29.864Z,1023.18
2019-03-24T00:58:29.830Z,1023.13
2019-03-24T00:59:29.796Z,1023.06
2019-03-24T01:00:29.779Z,1023.10
2019-03-24T01:01:29.769Z,1023.09
2019-03-24T01:02:29.760Z,1023.05
2019-03-24T01:03:29.771Z,1023.04
2019-03-24T01:04:29.738Z,1023.04
2019-03-24T01:05:29.721Z,1023.04
2019-03-24T01:06:29.715Z,1023.06
2019-03-24T01:07:29.707Z,1023.02
2019-03-24T01:08:29.718Z,1023.04
2019-03-24T01:09:29.677Z,1023.00
2019-03-24T01:10:29.668Z,1022.99
2019-03-24T01:11:29.653Z,1022.99
2019-03-24T01:12:29.642Z,1022.99
2019-03-24T01:13:29.660Z,1022.95
2019-03-24T01:14:29.624Z,1022.94
2019-03-24T01:15:29.629Z,1022.95
2019-03-24T01:16:29.596Z,1022.94
2019-03-24T01:17:29.587Z,1022.94
2019-03-24T01:18:29.586Z,1022.94
2019-03-24T01:19:29.586Z,1022.91
2019-03-24T01:20:29.555Z,1022.92
2019-03-24T01:21:29.552Z,1022.93
2019-03-24T01:22:29.534Z,1022.90
2019-03-24T01:23:29.545Z,1022.91
2019-03-24T01:24:29.508Z,1022.89
2019-03-24T01:25:29.506Z,1022.89
2019-03-24T01:26:29.486Z,1022.89
2019-03-24T01:27:29.478Z,1022.91
2019-03-24T01:28:29.500Z,1022.86
2019-03-24T01:29:29.462Z,1022.90
2019-03-24T01:30:29.462Z,1022.89
2019-03-24T01:31:29.431Z,1022.89
2019-03-24T01:32:29.425Z,1022.90
2019-03-24T01:33:29.441Z,1022.93
2019-03-24T01:34:29.396Z,1022.94
2019-03-24T01:35:29.385Z,1022.95
2019-03-24T01:36:29.373Z,1022.97
2019-03-24T01:37:29.364Z,1022.95
2019-03-24T01:38:29.354Z,1022.97
2019-03-24T01:39:29.379Z,1022.97
2019-03-24T01:40:29.347Z,1022.96
2019-03-24T01:41:29.319Z,1022.94
2019-03-24T01:42:29.314Z,1022.93
2019-03-24T01:43:29.307Z,1022.92
2019-03-24T01:44:29.307Z,1022.87
2019-03-24T01:45:29.286Z,1022.84
2019-03-24T01:46:29.271Z,1022.82
2019-03-24T01:47:29.253Z,1022.83
2019-03-24T01:48:29.257Z,1022.87
2019-03-24T01:49:29.276Z,1022.82
2019-03-24T01:50:29.223Z,1022.79
2019-03-24T01:51:29.255Z,1022.83
2019-03-24T01:52:29.197Z,1022.79
2019-03-24T01:53:29.184Z,1022.80
2019-03-24T01:54:29.199Z,1022.80
2019-03-24T01:55:29.161Z,1022.81
2019-03-24T01:56:29.152Z,1022.78
2019-03-24T01:57:29.140Z,1022.78
2019-03-24T01:58:29.137Z,1022.77
2019-03-24T01:59:29.140Z,1022.77
2019-03-24T02:00:29.110Z,1022.80
2019-03-24T02:01:29.106Z,1022.80
2019-03-24T02:02:29.117Z,1022.80
2019-03-24T02:03:29.084Z,1022.79
2019-03-24T02:04:29.088Z,1022.78
2019-03-24T02:05:29.053Z,1022.78
2019-03-24T02:06:29.040Z,1022.77
2019-03-24T02:07:29.030Z,1022.70
2019-03-24T02:08:29.020Z,1022.73
2019-03-24T02:09:29.093Z,1022.74
2019-03-24T02:10:29.029Z,1022.70
2019-03-24T02:11:28.986Z,1022.69
2019-03-24T02:12:28.974Z,1022.65
2019-03-24T02:13:28.968Z,1022.62
2019-03-24T02:14:28.954Z,1022.62
2019-03-24T02:15:28.960Z,1022.61
2019-03-24T02:16:28.938Z,1022.57
2019-03-24T02:17:28.921Z,1022.61
2019-03-24T02:18:28.908Z,1022.61
2019-03-24T02:19:28.899Z,1022.62
2019-03-24T02:20:28.910Z,1022.58
2019-03-24T02:21:28.889Z,1022.59
2019-03-24T02:22:28.863Z,1022.64
2019-03-24T02:23:28.854Z,1022.63
2019-03-24T02:24:28.842Z,1022.58
2019-03-24T02:25:28.852Z,1022.61
2019-03-24T02:26:28.824Z,1022.60
2019-03-24T02:27:28.805Z,1022.59
2019-03-24T02:28:28.802Z,1022.56
2019-03-24T02:29:28.786Z,1022.57
2019-03-24T02:30:28.815Z,1022.52
2019-03-24T02:31:28.765Z,1022.51
2019-03-24T02:32:28.755Z,1022.50
2019-03-24T02:33:28.740Z,1022.50
2019-03-24T02:34:28.744Z,1022.52
2019-03-24T02:35:28.750Z,1022.51
2019-03-24T02:36:28.708Z,1022.48
2019-03-24T02:37:28.696Z,1022.44
2019-03-24T02:38:28.685Z,1022.46
2019-03-24T02:39:28.679Z,1022.48
2019-03-24T02:40:28.701Z,1022.48
2019-03-24T02:41:28.653Z,1022.49
2019-03-24T02:42:28.639Z,1022.47
2019-03-24T02:43:28.632Z,1022.46
2019-03-24T02:44:28.636Z,1022.47
2019-03-24T02:45:28.626Z,1022.48
2019-03-24T02:46:28.629Z,1022.46
2019-03-24T02:47:28.586Z,1022.46
2019-03-24T02:48:28.578Z,1022.46
2019-03-24T02:49:28.564Z,1022.46
2019-03-24T02:50:28.556Z,1022.41
2019-03-24T02:51:28.570Z,1022.43
2019-03-24T02:52:28.531Z,1022.41
2019-03-24T02:53:28.534Z,1022.40
2019-03-24T02:54:28.532Z,1022.36
2019-03-24T02:55:28.502Z,1022.37
2019-03-24T02:56:28.513Z,1022.35
2019-03-24T02:57:28.474Z,1022.34
2019-03-24T02:58:28.465Z,1022.30
2019-03-24T02:59:28.465Z,1022.30
2019-03-24T03:00:28.446Z,1022.28
2019-03-24T03:01:28.471Z,1022.31
2019-03-24T03:02:28.418Z,1022.27
2019-03-24T03:03:28.406Z,1022.28
2019-03-24T03:04:28.401Z,1022.27
2019-03-24T03:05:28.391Z,1022.27
2019-03-24T03:06:28.375Z,1022.28
2019-03-24T03:07:28.388Z,1022.24
2019-03-24T03:08:28.353Z,1022.24
2019-03-24T03:09:28.344Z,1022.25
2019-03-24T03:10:28.336Z,1022.20
2019-03-24T03:11:28.345Z,1022.23
2019-03-24T03:12:28.330Z,1022.26
2019-03-24T03:13:28.300Z,1022.22
2019-03-24T03:14:28.292Z,1022.20
2019-03-24T03:15:28.286Z,1022.25
2019-03-24T03:16:38.302Z,1022.23
2019-03-24T03:17:29.252Z,1022.23
2019-03-24T03:18:28.247Z,1022.25
2019-03-24T03:19:28.241Z,1022.22
2019-03-24T03:20:28.226Z,1022.17
2019-03-24T03:21:28.244Z,1022.19
2019-03-24T03:22:28.225Z,1022.19
2019-03-24T03:23:28.196Z,1022.21
2019-03-24T03:24:28.177Z,1022.25
2019-03-24T03:25:28.166Z,1022.24
2019-03-24T03:26:28.155Z,1022.25
2019-03-24T03:27:28.175Z,1022.18
2019-03-24T03:28:28.130Z,1022.23
2019-03-24T03:29:28.117Z,1022.22
2019-03-24T03:30:28.131Z,1022.19
2019-03-24T03:31:28.099Z,1022.24
2019-03-24T03:32:28.144Z,1022.22
2019-03-24T03:33:28.078Z,1022.23
2019-03-24T03:34:28.082Z,1022.19
2019-03-24T03:35:28.053Z,1022.21
2019-03-24T03:36:28.178Z,1022.16
2019-03-24T03:37:28.219Z,1022.16
2019-03-24T03:38:28.035Z,1022.16
2019-03-24T03:39:28.061Z,1022.11
2019-03-24T03:40:28.001Z,1022.12
2019-03-24T03:41:27.999Z,1022.12
2019-03-24T03:42:27.998Z,1022.11
2019-03-24T03:43:28.082Z,1022.10
2019-03-24T03:44:27.952Z,1022.08
2019-03-24T03:45:27.947Z,1022.06
2019-03-24T03:46:27.931Z,1022.06
2019-03-24T03:47:28.026Z,1022.06
2019-03-24T03:48:27.935Z,1022.08
2019-03-24T03:49:27.901Z,1022.09
2019-03-24T03:50:27.884Z,1022.02
2019-03-24T03:51:27.875Z,1022.06
2019-03-24T03:52:27.894Z,1022.05
2019-03-24T03:53:27.853Z,1022.09
2019-03-24T03:54:27.876Z,1022.08
2019-03-24T03:55:27.830Z,1022.07
2019-03-24T03:56:27.829Z,1022.07
2019-03-24T03:57:27.817Z,1022.03
2019-03-24T03:58:27.826Z,1022.00
2019-03-24T03:59:27.784Z,1022.01
2019-03-24T04:00:27.771Z,1022.05
2019-03-24T04:01:27.761Z,1022.03
2019-03-24T04:02:27.759Z,1022.00
2019-03-24T04:03:27.762Z,1022.04
2019-03-24T04:04:27.730Z,1021.99
2019-03-24T04:05:27.715Z,1021.95
2019-03-24T04:06:27.706Z,1021.92
2019-03-24T04:07:27.692Z,1021.92
2019-03-24T04:08:27.714Z,1021.91
2019-03-24T04:09:27.680Z,1021.94
2019-03-24T04:10:27.660Z,1021.94
2019-03-24T04:11:27.652Z,1021.98
2019-03-24T04:12:27.633Z,1021.98
2019-03-24T04:13:27.647Z,1021.93
2019-03-24T04:14:27.611Z,1021.94
2019-03-24T04:15:27.601Z,1021.88
2019-03-24T04:16:27.591Z,1021.92
2019-03-24T04:17:27.589Z,1021.85
2019-03-24T04:18:27.593Z,1021.83
2019-03-24T04:19:27.589Z,1021.86
2019-03-24T04:20:27.545Z,1021.88
2019-03-24T04:21:27.531Z,1021.85
2019-03-24T04:22:27.520Z,1021.87
2019-03-24T04:23:27.542Z,1021.80
2019-03-24T04:24:27.513Z,1021.83
2019-03-24T04:25:27.490Z,1021.84
2019-03-24T04:26:27.480Z,1021.82
2019-03-24T04:27:27.465Z,1021.85
2019-03-24T04:28:27.462Z,1021.83
2019-03-24T04:29:27.465Z,1021.84
2019-03-24T04:30:27.428Z,1021.82
2019-03-24T04:31:27.425Z,1021.90
2019-03-24T04:32:27.420Z,1021.88
2019-03-24T04:33:27.399Z,1021.89
2019-03-24T04:34:27.420Z,1021.90
2019-03-24T04:35:27.375Z,1021.89
2019-03-24T04:36:27.360Z,1021.90
2019-03-24T04:37:27.352Z,1021.89
2019-03-24T04:38:27.337Z,1021.88
2019-03-24T04:39:27.347Z,1021.91
2019-03-24T04:40:27.314Z,1021.91
2019-03-24T04:41:27.311Z,1021.88
2019-03-24T04:42:27.301Z,1021.91
2019-03-24T04:43:27.285Z,1021.94
2019-03-24T04:44:27.297Z,1021.90
2019-03-24T04:45:27.256Z,1021.89
2019-03-24T04:46:27.250Z,1021.90
2019-03-24T04:47:27.233Z,1021.89
2019-03-24T04:48:27.225Z,1021.92
2019-03-24T04:49:27.233Z,1021.92
2019-03-24T04:50:27.203Z,1021.93
2019-03-24T04:51:27.186Z,1021.87
2019-03-24T04:52:27.177Z,1021.92
2019-03-24T04:53:27.165Z,1021.94
2019-03-24T04:54:27.262Z,1021.94
2019-03-24T04:55:27.150Z,1021.92
2019-03-24T04:56:27.137Z,1021.89
2019-03-24T04:57:27.133Z,1021.89
2019-03-24T04:58:27.110Z,1021.94
2019-03-24T04:59:27.094Z,1021.92
2019-03-24T05:00:27.174Z,1021.89
2019-03-24T05:01:27.075Z,1021.88
2019-03-24T05:02:27.076Z,1021.87
2019-03-24T05:03:27.049Z,1021.86
2019-03-24T05:04:27.041Z,1021.85
2019-03-24T05:05:27.054Z,1021.83
2019-03-24T05:06:27.017Z,1021.84
2019-03-24T05:07:27.003Z,1021.84
2019-03-24T05:08:27.008Z,1021.82
2019-03-24T05:09:26.982Z,1021.84
2019-03-24T05:10:27.000Z,1021.80
2019-03-24T05:11:26.967Z,1021.78
2019-03-24T05:12:26.986Z,1021.74
2019-03-24T05:13:26.937Z,1021.79
2019-03-24T05:14:26.929Z,1021.78
2019-03-24T05:15:26.959Z,1021.84
2019-03-24T05:16:26.938Z,1021.86
2019-03-24T05:17:27.500Z,1021.86
2019-03-24T05:18:26.890Z,1021.89
2019-03-24T05:19:26.867Z,1021.94
2019-03-24T05:20:26.862Z,1021.93
2019-03-24T05:21:26.874Z,1021.95
2019-03-24T05:22:26.835Z,1021.90
2019-03-24T05:23:26.823Z,1021.97
2019-03-24T05:24:26.815Z,1021.97
2019-03-24T05:25:26.808Z,1021.89
2019-03-24T05:26:26.815Z,1021.93
2019-03-24T05:27:26.785Z,1021.97
2019-03-24T05:28:26.770Z,1021.97
2019-03-24T05:29:26.769Z,1021.93
2019-03-24T05:30:26.763Z,1021.93
2019-03-24T05:31:26.760Z,1021.95
2019-03-24T05:32:26.731Z,1021.86
2019-03-24T05:33:26.725Z,1021.86
2019-03-24T05:34:26.702Z,1021.89
2019-03-24T05:35:26.709Z,1021.79
2019-03-24T05:36:26.702Z,1021.84
2019-03-24T05:37:26.673Z,1021.81
2019-03-24T05:38:26.667Z,1021.82
2019-03-24T05:39:26.645Z,1021.87
2019-03-24T05:40:26.656Z,1021.80
2019-03-24T05:41:26.772Z,1021.85
2019-03-24T05:42:26.616Z,1021.89
2019-03-24T05:43:26.598Z,1021.87
2019-03-24T05:44:26.587Z,1021.83
2019-03-24T05:45:26.580Z,1021.85
2019-03-24T05:46:26.590Z,1021.79
2019-03-24T05:47:36.642Z,1021.80
2019-03-24T05:48:27.546Z,1021.82
2019-03-24T05:49:26.529Z,1021.85
2019-03-24T05:50:26.518Z,1021.79
2019-03-24T05:51:26.533Z,1021.79
2019-03-24T05:52:27.692Z,1021.83
2019-03-24T05:53:26.486Z,1021.77
2019-03-24T05:54:26.480Z,1021.74
2019-03-24T05:55:26.466Z,1021.74
2019-03-24T05:56:26.478Z,1021.74
2019-03-24T05:57:26.445Z,1021.73
2019-03-24T05:58:26.437Z,1021.66
2019-03-24T05:59:26.450Z,1021.70
2019-03-24T06:00:26.405Z,1021.65
2019-03-24T06:01:26.392Z,1021.61
2019-03-24T06:02:26.416Z,1021.65
2019-03-24T06:03:26.379Z,1021.64
2019-03-24T06:04:26.360Z,1021.60
2019-03-24T06:05:26.353Z,1021.61
2019-03-24T06:06:26.341Z,1021.57
2019-03-24T06:07:26.370Z,1021.54
2019-03-24T06:08:26.347Z,1021.49
2019-03-24T06:09:26.330Z,1021.47
2019-03-24T06:10:26.293Z,1021.46
2019-03-24T06:11:26.283Z,1021.43
2019-03-24T06:12:26.269Z,1021.41
2019-03-24T06:13:26.259Z,1021.42
2019-03-24T06:14:26.277Z,1021.41
2019-03-24T06:15:26.236Z,1021.43
2019-03-24T06:16:26.227Z,1021.42
2019-03-24T06:17:26.216Z,1021.40
2019-03-24T06:18:26.232Z,1021.41
2019-03-24T06:19:26.214Z,1021.39
2019-03-24T06:20:26.196Z,1021.40
2019-03-24T06:21:26.175Z,1021.44
2019-03-24T06:22:26.156Z,1021.43
2019-03-24T06:23:26.153Z,1021.42
2019-03-24T06:24:26.161Z,1021.43
2019-03-24T06:25:26.125Z,1021.42
2019-03-24T06:26:26.116Z,1021.36
2019-03-24T06:27:26.106Z,1021.37
2019-03-24T06:28:26.117Z,1021.37
2019-03-24T06:29:26.095Z,1021.38
2019-03-24T06:30:26.108Z,1021.36
2019-03-24T06:31:26.074Z,1021.37
2019-03-24T06:32:26.054Z,1021.38
2019-03-24T06:33:26.034Z,1021.41
2019-03-24T06:34:26.053Z,1021.40
2019-03-24T06:35:26.041Z,1021.38
2019-03-24T06:36:26.005Z,1021.39
2019-03-24T06:37:26.003Z,1021.36
2019-03-24T06:38:25.987Z,1021.36
2019-03-24T06:39:25.994Z,1021.35
2019-03-24T06:40:25.958Z,1021.34
2019-03-24T06:41:25.951Z,1021.33
2019-03-24T06:42:25.934Z,1021.25
2019-03-24T06:43:25.926Z,1021.24
2019-03-24T06:44:25.943Z,1021.21
2019-03-24T06:45:28.677Z,1021.20
2019-03-24T06:46:25.898Z,1021.19
2019-03-24T06:47:25.879Z,1021.20
2019-03-24T06:48:25.871Z,1021.16
2019-03-24T06:49:25.897Z,1021.19
2019-03-24T06:50:25.849Z,1021.17
2019-03-24T06:51:26.132Z,1021.17
2019-03-24T06:52:25.880Z,1021.20
2019-03-24T06:53:25.814Z,1021.20
2019-03-24T06:54:25.993Z,1021.17
2019-03-24T06:55:25.798Z,1021.17
2019-03-24T06:56:25.787Z,1021.17
2019-03-24T06:57:25.767Z,1021.22
2019-03-24T06:58:25.756Z,1021.17
2019-03-24T06:59:25.768Z,1021.15
2019-03-24T07:00:25.735Z,1021.13
2019-03-24T07:01:25.722Z,1021.16
2019-03-24T07:02:25.711Z,1021.24
2019-03-24T07:03:25.705Z,1021.21
2019-03-24T07:04:25.726Z,1021.19
2019-03-24T07:05:25.703Z,1021.20
2019-03-24T07:06:25.678Z,1021.20
2019-03-24T07:07:25.681Z,1021.27
2019-03-24T07:08:25.645Z,1021.22
2019-03-24T07:09:25.633Z,1021.21
2019-03-24T07:10:25.664Z,1021.21
2019-03-24T07:11:25.611Z,1021.20
2019-03-24T07:12:25.627Z,1021.21
2019-03-24T07:13:25.593Z,1021.17
2019-03-24T07:14:25.578Z,1021.15
2019-03-24T07:15:25.590Z,1021.16
2019-03-24T07:16:25.560Z,1021.18
2019-03-24T07:17:25.545Z,1021.20
2019-03-24T07:18:25.534Z,1021.19
2019-03-24T07:19:25.541Z,1021.18
2019-03-24T07:20:25.549Z,1021.23
2019-03-24T07:21:25.522Z,1021.23
2019-03-24T07:22:25.487Z,1021.24
2019-03-24T07:23:25.485Z,1021.27
2019-03-24T07:24:25.465Z,1021.23
2019-03-24T07:25:25.482Z,1021.27
2019-03-24T07:26:25.439Z,1021.27
2019-03-24T07:27:25.433Z,1021.27
2019-03-24T07:28:25.422Z,1021.27
2019-03-24T07:29:25.410Z,1021.24
2019-03-24T07:30:25.431Z,1021.21
2019-03-24T07:31:25.387Z,1021.24
2019-03-24T07:32:25.381Z,1021.24
2019-03-24T07:33:25.366Z,1021.22
2019-03-24T07:34:25.399Z,1021.22
2019-03-24T07:35:25.343Z,1021.25
2019-03-24T07:36:25.331Z,1021.23
2019-03-24T07:37:25.322Z,1021.28
2019-03-24T07:38:25.312Z,1021.28
2019-03-24T07:39:25.344Z,1021.32
2019-03-24T07:40:25.299Z,1021.32
2019-03-24T07:41:25.299Z,1021.31
2019-03-24T07:42:25.265Z,1021.34
2019-03-24T07:43:25.256Z,1021.36
2019-03-24T07:44:25.252Z,1021.37
2019-03-24T07:45:25.238Z,1021.36
2019-03-24T07:46:25.247Z,1021.42
2019-03-24T07:47:25.234Z,1021.37
2019-03-24T07:48:25.247Z,1021.38
2019-03-24T07:49:25.215Z,1021.40
2019-03-24T07:50:25.180Z,1021.40
2019-03-24T07:51:25.164Z,1021.36
2019-03-24T07:52:25.181Z,1021.42
2019-03-24T07:53:25.151Z,1021.41
2019-03-24T07:54:25.130Z,1021.45
2019-03-24T07:55:25.130Z,1021.39
2019-03-24T07:56:25.161Z,1021.42
2019-03-24T07:57:25.100Z,1021.37
2019-03-24T07:58:25.095Z,1021.39
2019-03-24T07:59:25.080Z,1021.42
2019-03-24T08:00:25.087Z,1021.41
2019-03-24T08:01:25.104Z,1021.39
2019-03-24T08:02:25.091Z,1021.37
2019-03-24T08:03:25.035Z,1021.40
2019-03-24T08:04:25.030Z,1021.33
2019-03-24T08:05:25.017Z,1021.34
2019-03-24T08:06:25.004Z,1021.35
2019-03-24T08:07:25.030Z,1021.40
2019-03-24T08:08:24.984Z,1021.43
2019-03-24T08:09:24.965Z,1021.45
2019-03-24T08:10:24.962Z,1021.42
2019-03-24T08:11:24.952Z,1021.40
2019-03-24T08:12:24.947Z,1021.39
2019-03-24T08:13:24.971Z,1021.44
2019-03-24T08:14:24.929Z,1021.42
2019-03-24T08:15:24.899Z,1021.39
2019-03-24T08:16:24.885Z,1021.41
2019-03-24T08:17:24.881Z,1021.39
2019-03-24T08:18:29.911Z,1021.42
2019-03-24T08:19:25.856Z,1021.36
2019-03-24T08:20:24.843Z,1021.40
2019-03-24T08:21:24.833Z,1021.34
2019-03-24T08:22:24.825Z,1021.29
2019-03-24T08:23:24.831Z,1021.26
2019-03-24T08:24:24.803Z,1021.22
2019-03-24T08:25:24.794Z,1021.15
2019-03-24T08:26:24.778Z,1021.11
2019-03-24T08:27:24.762Z,1021.06
2019-03-24T08:28:24.774Z,1021.06
2019-03-24T08:29:24.752Z,1021.08
2019-03-24T08:30:24.741Z,1021.03
2019-03-24T08:31:24.727Z,1021.07
2019-03-24T08:32:24.711Z,1021.07
2019-03-24T08:33:24.731Z,1021.07
2019-03-24T08:34:24.712Z,1021.05
2019-03-24T08:35:24.684Z,1020.98
2019-03-24T08:36:24.672Z,1021.00
2019-03-24T08:37:24.660Z,1020.94
2019-03-24T08:38:24.665Z,1020.95
2019-03-24T08:39:24.663Z,1020.93
2019-03-24T08:40:24.621Z,1020.94
2019-03-24T08:41:24.613Z,1020.98
2019-03-24T08:42:24.601Z,1020.99
2019-03-24T08:43:24.614Z,1020.93
2019-03-24T08:44:24.577Z,1020.89
2019-03-24T08:45:24.564Z,1020.89
2019-03-24T08:46:24.559Z,1020.89
2019-03-24T08:47:24.552Z,1020.92
2019-03-24T08:48:24.546Z,1020.95
2019-03-24T08:49:24.553Z,1020.91
2019-03-24T08:50:24.511Z,1020.90
2019-03-24T08:51:24.504Z,1020.92
2019-03-24T08:52:24.501Z,1020.92
2019-03-24T08:53:24.480Z,1020.89
2019-03-24T08:54:24.496Z,1020.92
2019-03-24T08:55:24.457Z,1020.91
2019-03-24T08:56:24.448Z,1020.99
2019-03-24T08:57:24.446Z,1020.94
2019-03-24T08:58:24.424Z,1020.89
2019-03-24T08:59:24.444Z,1020.86
2019-03-24T09:00:30.524Z,1020.90
2019-03-24T09:01:25.394Z,1020.87
2019-03-24T09:02:24.379Z,1020.95
2019-03-24T09:03:24.411Z,1020.85
2019-03-24T09:04:24.390Z,1020.87
2019-03-24T09:05:24.363Z,1020.88
2019-03-24T09:06:24.332Z,1020.81
2019-03-24T09:07:24.483Z,1020.84
2019-03-24T09:08:24.314Z,1020.79
2019-03-24T09:09:24.324Z,1020.79
2019-03-24T09:10:24.315Z,1020.76
2019-03-24T09:11:31.157Z,1020.80
2019-03-24T09:12:25.265Z,1020.75
2019-03-24T09:13:24.272Z,1020.73
2019-03-24T09:14:24.280Z,1020.73
2019-03-24T09:15:24.230Z,1020.73
2019-03-24T09:16:24.220Z,1020.71
2019-03-24T09:17:24.251Z,1020.74
2019-03-24T09:18:24.198Z,1020.74
2019-03-24T09:19:24.205Z,1020.75
2019-03-24T09:20:24.223Z,1020.73
2019-03-24T09:21:24.167Z,1020.72
2019-03-24T09:22:24.154Z,1020.75
2019-03-24T09:23:24.148Z,1020.76
2019-03-24T09:24:24.173Z,1020.76
2019-03-24T09:25:24.162Z,1020.75
2019-03-24T09:26:24.153Z,1020.80
2019-03-24T09:27:24.114Z,1020.86
2019-03-24T09:28:24.093Z,1020.86
2019-03-24T09:29:24.076Z,1020.85
2019-03-24T09:30:24.076Z,1020.86
2019-03-24T09:31:24.083Z,1020.88
2019-03-24T09:32:24.051Z,1020.86
2019-03-24T09:33:24.035Z,1020.84
2019-03-24T09:34:24.020Z,1020.85
2019-03-24T09:35:24.065Z,1020.80
2019-03-24T09:36:24.003Z,1020.81
2019-03-24T09:37:23.985Z,1020.78
2019-03-24T09:38:23.977Z,1020.78
2019-03-24T09:39:23.969Z,1020.76
2019-03-24T09:40:23.992Z,1020.76
2019-03-24T09:41:23.942Z,1020.72
2019-03-24T09:42:23.946Z,1020.75
2019-03-24T09:43:23.919Z,1020.73
2019-03-24T09:44:23.907Z,1020.76
2019-03-24T09:45:23.936Z,1020.78
2019-03-24T09:46:23.902Z,1020.75
2019-03-24T09:47:23.887Z,1020.75
2019-03-24T09:48:23.864Z,1020.73
2019-03-24T09:49:23.850Z,1020.69
2019-03-24T09:50:23.840Z,1020.68
2019-03-24T09:51:23.856Z,1020.67
2019-03-24T09:52:23.814Z,1020.67
2019-03-24T09:53:23.810Z,1020.63
2019-03-24T09:54:23.800Z,1020.70
2019-03-24T09:55:23.782Z,1020.75
2019-03-24T09:56:23.800Z,1020.77
2019-03-24T09:57:23.879Z,1020.82
2019-03-24T09:58:23.772Z,1020.80
2019-03-24T09:59:23.851Z,1020.83
2019-03-24T10:00:23.731Z,1020.84
2019-03-24T10:01:23.867Z,1020.83
2019-03-24T10:02:23.706Z,1020.85
2019-03-24T10:03:23.695Z,1020.86
2019-03-24T10:04:23.687Z,1020.78
2019-03-24T10:05:23.672Z,1020.77
2019-03-24T10:06:23.697Z,1020.79
2019-03-24T10:07:23.678Z,1020.82
2019-03-24T10:08:23.646Z,1020.76
2019-03-24T10:09:23.632Z,1020.78
2019-03-24T10:10:23.614Z,1020.75
2019-03-24T10:11:23.631Z,1020.72
2019-03-24T10:12:23.599Z,1020.75
2019-03-24T10:13:23.588Z,1020.70
2019-03-24T10:14:23.582Z,1020.67
2019-03-24T10:15:23.563Z,1020.64
2019-03-24T10:16:23.588Z,1020.58
2019-03-24T10:17:23.541Z,1020.56
2019-03-24T10:18:23.527Z,1020.51
2019-03-24T10:19:23.515Z,1020.46
2019-03-24T10:20:23.504Z,1020.43
2019-03-24T10:21:23.534Z,1020.37
2019-03-24T10:22:23.480Z,1020.37
2019-03-24T10:23:23.474Z,1020.31
2019-03-24T10:24:23.455Z,1020.26
2019-03-24T10:25:23.440Z,1020.27
2019-03-24T10:26:23.471Z,1020.24
2019-03-24T10:27:23.453Z,1020.25
2019-03-24T10:28:23.772Z,1020.28
2019-03-24T10:29:23.407Z,1020.24
2019-03-24T10:30:23.402Z,1020.22
2019-03-24T10:31:23.381Z,1020.20
2019-03-24T10:32:23.400Z,1020.18
2019-03-24T10:33:23.357Z,1020.17
2019-03-24T10:34:23.356Z,1020.18
2019-03-24T10:35:23.340Z,1020.12
2019-03-24T10:36:23.358Z,1020.14
2019-03-24T10:37:23.352Z,1020.17
2019-03-24T10:38:23.301Z,1020.16
2019-03-24T10:39:23.284Z,1020.12
2019-03-24T10:40:28.727Z,1020.13
2019-03-24T10:41:24.316Z,1020.13
2019-03-24T10:42:23.289Z,1020.07
2019-03-24T10:43:23.240Z,1020.04
2019-03-24T10:44:23.236Z,1020.07
2019-03-24T10:45:23.237Z,1019.99
2019-03-24T10:46:23.208Z,1020.00
2019-03-24T10:47:23.228Z,1019.98
2019-03-24T10:48:33.140Z,1019.99
2019-03-24T10:49:25.305Z,1019.98
2019-03-24T10:50:23.166Z,1019.94
2019-03-24T10:51:23.150Z,1019.96
2019-03-24T10:52:23.176Z,1019.96
2019-03-24T10:53:23.131Z,1019.95
2019-03-24T10:54:23.130Z,1019.93
2019-03-24T10:55:23.112Z,1019.96
2019-03-24T10:56:23.097Z,1019.99
2019-03-24T10:57:23.149Z,1019.96
2019-03-24T10:58:23.116Z,1019.97
2019-03-24T10:59:23.095Z,1019.97
2019-03-24T11:00:23.051Z,1019.99
2019-03-24T11:01:23.052Z,1019.95
2019-03-24T11:02:23.034Z,1019.96
2019-03-24T11:03:23.082Z,1019.95
2019-03-24T11:04:23.020Z,1020.00
2019-03-24T11:05:22.994Z,1020.02
2019-03-24T11:06:22.986Z,1019.96
2019-03-24T11:07:22.975Z,1019.96
2019-03-24T11:08:23.023Z,1019.98
2019-03-24T11:09:22.958Z,1019.96
2019-03-24T11:10:22.950Z,1019.98
2019-03-24T11:11:22.949Z,1019.99
2019-03-24T11:12:22.927Z,1019.96
2019-03-24T11:13:22.936Z,1019.94
2019-03-24T11:14:22.906Z,1019.94
2019-03-24T11:15:22.887Z,1019.92
2019-03-24T11:16:22.896Z,1019.92
2019-03-24T11:17:22.858Z,1019.97
2019-03-24T11:18:22.927Z,1019.94
2019-03-24T11:19:22.887Z,1019.95
2019-03-24T11:20:22.832Z,1019.91
2019-03-24T11:21:22.819Z,1019.92
2019-03-24T11:22:22.818Z,1019.91
2019-03-24T11:23:22.797Z,1019.94
2019-03-24T11:24:22.810Z,1019.92
2019-03-24T11:25:22.780Z,1019.96
2019-03-24T11:26:22.804Z,1019.90
2019-03-24T11:27:22.749Z,1019.91
2019-03-24T11:28:22.745Z,1019.94
2019-03-24T11:29:22.778Z,1019.92
2019-03-24T11:30:22.727Z,1019.93
2019-03-24T11:31:22.822Z,1019.92
2019-03-24T11:32:22.692Z,1019.95
2019-03-24T11:33:22.674Z,1019.93
2019-03-24T11:34:22.700Z,1019.88
2019-03-24T11:35:22.659Z,1019.99
2019-03-24T11:36:22.653Z,1019.98
2019-03-24T11:37:22.638Z,1019.95
2019-03-24T11:38:22.628Z,1019.92
2019-03-24T11:39:22.617Z,1019.91
2019-03-24T11:40:22.622Z,1019.88
2019-03-24T11:41:22.583Z,1019.86
2019-03-24T11:42:22.574Z,1019.90
2019-03-24T11:43:22.563Z,1019.85
2019-03-24T11:44:22.588Z,1019.79
2019-03-24T11:45:22.565Z,1019.77
2019-03-24T11:46:22.539Z,1019.82
2019-03-24T11:47:26.825Z,1019.79
2019-03-24T11:48:22.503Z,1019.79
2019-03-24T11:49:22.496Z,1019.80
2019-03-24T11:50:22.541Z,1019.80
2019-03-24T11:51:22.471Z,1019.83
2019-03-24T11:52:22.462Z,1019.84
2019-03-24T11:53:22.451Z,1019.86
2019-03-24T11:54:22.439Z,1019.83
2019-03-24T11:55:22.463Z,1019.80
2019-03-24T11:56:22.445Z,1019.81
2019-03-24T11:57:22.413Z,1019.80
2019-03-24T11:58:22.404Z,1019.78
2019-03-24T11:59:22.393Z,1019.73
2019-03-24T12:00:22.371Z,1019.65
2019-03-24T12:01:22.401Z,1019.66
2019-03-24T12:02:22.372Z,1019.62
2019-03-24T12:03:22.384Z,1019.62
2019-03-24T12:04:22.358Z,1019.63
2019-03-24T12:05:22.348Z,1019.59